Airfield :
LOGIN :

Register | Disclaimer

   EN    FR    IT 

 










Legend :    VFR   Marginal VFR   IFR   Intensive IFR   Very Intensive IFR
Visi :
Ceiling :
>= 8 km
>= 3000ft
5 to 8 km
1000 to 3000 ft
1500m to 5 km
500 to 1000 ft
800 to 1500m
200 to 500 ft
< 800m
< 200 ft
Symbols :   Thunderstorms  Fog  Heavy snow  Heavy precipitations  Wind > 20 kt
SIGMETs :     Misc.  Thunderstorms  Icing  Turbulence  Mountain Waves  Volcanic Ashes







- Airport Elevation : 290 ft
- IATA code : LAI
- Download approach charts


LFRO - Lannion

CURRENT METAR :
  • 222330Z AUTO 28008KT 9999 OVC026 15/13 Q1020

EXPIRED METARs :
  • 222300Z AUTO 28007KT 9999 BKN022 OVC028 16/13 Q1020
  • 222230Z AUTO 27006KT 9999 SCT016 BKN023 OVC031 15/14 Q1019
  • 222200Z AUTO 26004KT 9999 SCT018 SCT023 OVC033 15/13 Q1019
  • 222130Z AUTO 27006KT 9999 FEW018 BKN034 15/13 Q1019
  • 222100Z AUTO 27007KT 9999 BKN012 OVC034 16/14 Q1019

TAF TAF LFRO
Valid from the 22 at 12:00 until the 23 at 12:00 UTC


221100Z 2212/2312 28012KT 9999 SCT020
BECMG 2216/2218 BKN014
TEMPO 2218/2224 BKN010
BECMG 2306/2309 BKN030
No reported NOTAMs for that airfield.



MET'MAP, your aeronautical weather chart ! - Copyright ORBIFLY December 2007 - Disclaimer

ORBIFLY MET'MAP TEAM :

Programming & Development : Alexandra Zaïnal
Concept & Development : Baudouin d'Aumeries
Co-Development & Prog : Marc-Olivier Méhu
Technical & hardware support : Manuel Goepfert

Contact : metmap@orbifly.com




SOURCES & CREDITS :

   NOAA